Time;durP1;ratioP1;P1;durP2;ratioP2;P2;SDS_P1;SDS_P2;PMS_P1;PMS_P2;Temp;Humidity;BMP_temperature;BMP_pressure;BME280_temperature;BME280_humidity;BME280_pressure;Samples;Min_cycle;Max_cycle;Signal;HPM_P1;HPM_P2
2021/06/10 00:01:30;;;;;;;14.13;12.05;;;21.20;79.50;;;;;;5177204;27;20437;-85
2021/06/10 00:03:56;;;;;;;13.82;12.13;;;21.10;79.40;;;;;;5178028;27;20042;-86
2021/06/10 00:06:22;;;;;;;15.48;12.43;;;21.10;79.50;;;;;;5176769;27;20038;-86
2021/06/10 00:08:47;;;;;;;14.48;12.75;;;21.00;79.60;;;;;;5178010;27;20054;-86
2021/06/10 00:11:13;;;;;;;14.40;12.90;;;21.00;79.60;;;;;;5177421;27;20049;-87
2021/06/10 00:13:39;;;;;;;14.07;12.50;;;20.90;79.50;;;;;;5157000;27;20050;-87
2021/06/10 00:16:04;;;;;;;14.75;12.90;;;20.90;79.50;;;;;;5156905;27;20046;-86
2021/06/10 00:18:30;;;;;;;15.45;12.93;;;20.80;79.60;;;;;;5156579;27;20043;-86
2021/06/10 00:20:56;;;;;;;15.55;13.85;;;20.70;79.70;;;;;;5156006;27;20046;-86
2021/06/10 00:23:21;;;;;;;16.92;13.93;;;20.70;79.80;;;;;;5175659;27;20053;-86
2021/06/10 00:25:47;;;;;;;15.57;13.48;;;20.70;79.80;;;;;;5177343;27;20054;-85
2021/06/10 00:28:13;;;;;;;16.85;13.98;;;20.60;79.70;;;;;;5176514;27;20496;-86
2021/06/10 00:30:39;;;;;;;14.73;13.23;;;20.60;80.00;;;;;;5176769;27;20094;-86
2021/06/10 00:33:05;;;;;;;14.88;13.27;;;20.60;80.00;;;;;;5176832;27;20050;-85
2021/06/10 00:35:32;;;;;;;15.15;13.05;;;20.50;80.00;;;;;;5177297;27;20042;-85
2021/06/10 00:37:59;;;;;;;16.80;14.10;;;20.50;80.10;;;;;;5177237;27;20046;-85
2021/06/10 00:40:30;;;;;;;15.75;14.15;;;20.50;80.00;;;;;;5176183;27;20047;-85
2021/06/10 00:42:57;;;;;;;15.82;14.23;;;20.40;79.90;;;;;;5177211;27;20402;-85
2021/06/10 00:45:24;;;;;;;16.33;13.40;;;20.40;79.80;;;;;;5177083;27;20049;-85
2021/06/10 00:47:51;;;;;;;16.67;14.93;;;20.40;79.80;;;;;;5176136;27;20042;-86
2021/06/10 00:50:29;;;;;;;16.17;14.48;;;20.40;80.00;;;;;;5177257;27;20046;-85
2021/06/10 00:52:55;;;;;;;17.35;15.05;;;20.30;80.10;;;;;;5176610;27;20454;-85
2021/06/10 00:55:20;;;;;;;16.90;14.57;;;20.20;80.20;;;;;;5175630;27;20046;-85
2021/06/10 00:57:46;;;;;;;17.15;14.88;;;20.20;80.20;;;;;;5176190;27;20054;-85
2021/06/10 01:00:14;;;;;;;17.10;15.13;;;20.20;80.10;;;;;;5176712;27;20561;-85
2021/06/10 01:02:40;;;;;;;15.85;14.13;;;20.10;80.00;;;;;;5175657;27;20493;-85
2021/06/10 01:05:08;;;;;;;16.73;14.93;;;20.00;80.90;;;;;;5174789;27;20042;-85
2021/06/10 01:07:33;;;;;;;16.73;14.88;;;20.00;80.30;;;;;;5176013;27;20099;-85
2021/06/10 01:10:15;;;;;;;17.45;15.65;;;19.90;80.40;;;;;;5157395;27;20477;-86
2021/06/10 01:12:56;;;;;;;19.13;16.27;;;19.80;80.20;;;;;;5162527;27;20066;-85
2021/06/10 01:15:28;;;;;;;16.98;15.18;;;19.80;80.40;;;;;;5154621;27;20038;-85
2021/06/10 01:17:54;;;;;;;18.02;16.20;;;19.70;80.60;;;;;;5155606;27;20042;-85
2021/06/10 01:20:26;;;;;;;17.77;15.20;;;19.70;80.70;;;;;;5155739;27;20073;-86
2021/06/10 01:22:51;;;;;;;19.52;15.75;;;19.60;80.70;;;;;;5154260;27;20042;-86
2021/06/10 01:25:50;;;;;;;18.38;16.50;;;19.60;80.80;;;;;;5155754;27;20465;-86
2021/06/10 01:28:21;;;;;;;19.02;16.08;;;19.50;80.40;;;;;;5155254;27;20046;-86
2021/06/10 01:30:46;;;;;;;18.77;16.50;;;19.50;80.90;;;;;;5154844;27;20045;-85
2021/06/10 01:33:21;;;;;;;18.70;16.75;;;19.50;81.10;;;;;;5155400;27;20059;-85
2021/06/10 01:35:57;;;;;;;17.85;15.52;;;19.40;81.00;;;;;;5155430;27;20095;-86
2021/06/10 01:38:26;;;;;;;17.90;16.00;;;19.40;80.90;;;;;;5154305;27;20038;-86
2021/06/10 01:40:54;;;;;;;20.48;16.60;;;19.30;81.30;;;;;;5155568;27;20053;-86
2021/06/10 01:43:20;;;;;;;18.25;16.35;;;19.30;81.30;;;;;;5154390;27;20042;-86
2021/06/10 01:45:49;;;;;;;18.38;16.45;;;19.30;81.40;;;;;;5154915;27;20050;-86
2021/06/10 01:48:20;;;;;;;19.00;16.15;;;19.20;81.50;;;;;;5156034;27;20402;-86
2021/06/10 01:50:50;;;;;;;17.63;15.80;;;19.20;81.50;;;;;;5153704;27;20051;-86
2021/06/10 01:53:17;;;;;;;20.77;16.55;;;19.10;81.50;;;;;;5154937;27;20516;-86
2021/06/10 01:55:46;;;;;;;18.15;15.98;;;19.10;81.70;;;;;;5154469;27;20050;-85
2021/06/10 01:58:12;;;;;;;17.95;16.05;;;19.10;81.70;;;;;;5153964;27;20079;-85
2021/06/10 02:00:40;;;;;;;20.23;16.40;;;19.00;81.80;;;;;;5154115;27;20046;-85
2021/06/10 02:03:09;;;;;;;18.55;16.00;;;19.00;81.60;;;;;;5154939;27;20051;-85
2021/06/10 02:05:40;;;;;;;18.38;16.48;;;18.90;81.80;;;;;;5153820;27;20051;-85
2021/06/10 02:08:10;;;;;;;19.40;16.50;;;18.80;81.60;;;;;;5154441;27;20129;-85
2021/06/10 02:10:38;;;;;;;17.20;15.23;;;18.80;81.60;;;;;;5154396;27;20050;-85
2021/06/10 02:13:08;;;;;;;18.75;16.23;;;18.70;82.50;;;;;;5172823;27;20098;-85
2021/06/10 02:15:37;;;;;;;18.23;16.33;;;18.70;81.90;;;;;;5174756;27;20548;-85
2021/06/10 02:18:03;;;;;;;18.27;16.33;;;18.70;81.90;;;;;;5175103;27;20046;-86
2021/06/10 02:20:36;;;;;;;18.70;16.70;;;18.60;81.80;;;;;;5174178;27;20072;-86
2021/06/10 02:23:01;;;;;;;17.40;15.57;;;18.50;81.70;;;;;;5175635;27;20045;-86
2021/06/10 02:25:27;;;;;;;18.10;15.85;;;18.50;81.50;;;;;;5174607;27;20065;-86
2021/06/10 02:27:53;;;;;;;17.42;15.63;;;18.40;81.60;;;;;;5175028;27;20057;-85
2021/06/10 02:30:19;;;;;;;17.33;15.43;;;18.30;81.50;;;;;;5175253;27;20496;-86
2021/06/10 02:32:45;;;;;;;18.40;16.40;;;18.30;81.70;;;;;;5174222;27;20121;-85
2021/06/10 02:35:12;;;;;;;17.98;16.17;;;18.20;81.60;;;;;;5175056;27;20098;-85
2021/06/10 02:37:44;;;;;;;18.50;16.48;;;18.10;82.20;;;;;;5175032;27;20050;-86
2021/06/10 02:40:14;;;;;;;17.08;15.27;;;18.10;82.50;;;;;;5174545;27;20042;-86
2021/06/10 02:42:41;;;;;;;17.45;15.05;;;18.00;82.60;;;;;;5159239;27;20512;-85
2021/06/10 02:45:08;;;;;;;15.27;13.68;;;17.90;82.60;;;;;;5153942;27;20054;-85
2021/06/10 02:47:36;;;;;;;15.98;14.20;;;17.90;82.50;;;;;;5152533;27;20410;-85
2021/06/10 02:50:04;;;;;;;16.13;13.75;;;17.80;82.70;;;;;;5153685;27;20397;-87
2021/06/10 02:52:30;;;;;;;15.48;13.82;;;17.80;83.10;;;;;;5153837;27;20486;-86
2021/06/10 02:54:56;;;;;;;14.48;12.73;;;17.70;82.90;;;;;;5157545;27;20046;-86
2021/06/10 02:57:25;;;;;;;14.25;12.25;;;17.70;82.90;;;;;;5174523;27;20102;-85
2021/06/10 02:59:52;;;;;;;13.65;12.25;;;17.60;82.80;;;;;;5175008;27;20050;-84
2021/06/10 03:02:19;;;;;;;13.57;11.57;;;17.60;83.10;;;;;;5159754;27;20055;-85
2021/06/10 03:04:46;;;;;;;15.02;12.18;;;17.50;82.90;;;;;;5153612;27;20047;-86
2021/06/10 03:07:15;;;;;;;13.13;11.30;;;17.50;83.00;;;;;;5154034;27;20043;-85
2021/06/10 03:09:42;;;;;;;13.05;11.65;;;17.40;83.00;;;;;;5153244;27;20054;-85
2021/06/10 03:12:10;;;;;;;12.48;11.10;;;17.40;83.50;;;;;;5162960;27;20572;-85
2021/06/10 03:14:37;;;;;;;12.20;10.90;;;17.40;83.10;;;;;;5174352;27;20180;-85
2021/06/10 03:17:03;;;;;;;11.77;10.50;;;17.30;83.20;;;;;;5174193;27;20050;-86
2021/06/10 03:19:30;;;;;;;11.95;10.75;;;17.30;83.50;;;;;;5174602;27;20049;-85
2021/06/10 03:21:56;;;;;;;11.23;10.02;;;17.20;83.20;;;;;;5173414;27;20535;-85
2021/06/10 03:24:22;;;;;;;13.57;10.75;;;17.20;83.20;;;;;;5173975;27;20049;-85
2021/06/10 03:26:49;;;;;;;11.68;10.10;;;17.10;83.20;;;;;;5174236;27;20047;-84
2021/06/10 03:29:15;;;;;;;11.30;9.43;;;17.00;82.80;;;;;;5175470;27;20046;-84
2021/06/10 03:31:42;;;;;;;10.85;9.35;;;17.00;83.20;;;;;;5178556;27;20129;-85
2021/06/10 03:34:09;;;;;;;11.75;10.18;;;17.00;83.40;;;;;;5178662;27;20095;-85
2021/06/10 03:36:36;;;;;;;11.88;9.65;;;16.90;83.50;;;;;;5177606;27;20045;-85
2021/06/10 03:39:05;;;;;;;11.00;9.57;;;16.90;83.30;;;;;;5165973;27;20061;-85
2021/06/10 03:41:32;;;;;;;11.60;9.80;;;16.80;83.60;;;;;;5157117;27;20047;-85
2021/06/10 03:44:00;;;;;;;11.23;9.60;;;16.80;83.60;;;;;;5156872;27;20053;-86
2021/06/10 03:46:27;;;;;;;10.57;9.20;;;16.70;83.70;;;;;;5157402;27;20043;-85
2021/06/10 03:48:53;;;;;;;11.63;9.40;;;16.70;83.90;;;;;;5156919;27;20046;-85
2021/06/10 03:51:20;;;;;;;11.57;9.68;;;16.60;83.80;;;;;;5156564;27;20114;-85
2021/06/10 03:53:48;;;;;;;10.65;9.52;;;16.70;84.30;;;;;;5156835;27;20050;-85
2021/06/10 03:56:19;;;;;;;10.38;9.25;;;16.60;84.30;;;;;;5157380;27;20038;-85
2021/06/10 03:58:45;;;;;;;10.27;9.00;;;16.60;84.00;;;;;;5166680;27;20101;-85
2021/06/10 04:01:11;;;;;;;10.57;9.05;;;16.50;84.40;;;;;;5177868;27;20038;-85
2021/06/10 04:03:37;;;;;;;10.35;8.95;;;16.50;84.00;;;;;;5177733;27;20053;-84
2021/06/10 04:06:05;;;;;;;9.73;8.73;;;16.50;84.20;;;;;;5177311;27;20042;-85
2021/06/10 04:08:42;;;;;;;10.13;9.02;;;16.40;84.40;;;;;;5177455;27;20145;-85
2021/06/10 04:11:16;;;;;;;10.45;9.35;;;16.40;84.30;;;;;;5174606;27;20171;-86
2021/06/10 04:13:41;;;;;;;10.35;8.43;;;16.40;84.50;;;;;;5156900;27;20070;-85
2021/06/10 04:16:24;;;;;;;10.77;8.88;;;16.30;84.50;;;;;;5156985;27;20051;-85
2021/06/10 04:18:51;;;;;;;9.60;8.40;;;16.30;84.50;;;;;;5169410;27;20051;-85
2021/06/10 04:21:17;;;;;;;11.35;8.77;;;16.30;84.70;;;;;;5177317;27;20461;-85
2021/06/10 04:23:44;;;;;;;10.43;8.88;;;16.20;84.70;;;;;;5177672;27;20050;-85
2021/06/10 04:26:10;;;;;;;9.30;7.95;;;16.20;84.60;;;;;;5177023;27;20050;-86
2021/06/10 04:28:41;;;;;;;9.32;8.13;;;16.20;84.60;;;;;;5177218;27;20054;-85
2021/06/10 04:31:06;;;;;;;9.73;8.68;;;16.10;84.60;;;;;;5177756;27;20042;-85
2021/06/10 04:33:33;;;;;;;9.55;8.38;;;16.20;84.80;;;;;;5176387;27;20545;-85
2021/06/10 04:35:58;;;;;;;11.55;8.77;;;16.20;84.80;;;;;;5177400;27;20148;-85
2021/06/10 04:38:32;;;;;;;9.82;8.77;;;16.10;84.60;;;;;;5176709;27;20043;-85
2021/06/10 04:40:58;;;;;;;10.45;8.27;;;16.10;84.90;;;;;;5161304;27;20051;-85
2021/06/10 04:43:31;;;;;;;11.02;8.93;;;16.00;84.90;;;;;;5156241;27;20130;-85
2021/06/10 04:45:57;;;;;;;10.60;9.50;;;16.00;84.60;;;;;;5156607;27;20081;-85
2021/06/10 04:48:24;;;;;;;11.60;9.68;;;16.00;84.60;;;;;;5164449;27;20551;-85
2021/06/10 04:50:50;;;;;;;12.32;9.95;;;16.00;84.80;;;;;;5177197;27;20054;-85
2021/06/10 04:53:32;;;;;;;11.77;9.80;;;16.00;84.90;;;;;;5175835;27;20489;-85
2021/06/10 04:55:58;;;;;;;10.70;9.55;;;15.90;85.00;;;;;;5177073;27;20053;-85
2021/06/10 04:58:25;;;;;;;12.00;10.73;;;15.90;85.00;;;;;;5176595;27;20042;-85
2021/06/10 05:00:51;;;;;;;14.75;12.15;;;15.90;84.40;;;;;;5170231;27;20121;-85
2021/06/10 05:03:21;;;;;;;12.30;10.70;;;15.90;84.70;;;;;;5156390;27;20115;-85
2021/06/10 05:05:49;;;;;;;13.55;11.50;;;15.90;84.20;;;;;;5155809;27;20051;-85
2021/06/10 05:08:15;;;;;;;12.27;10.98;;;15.90;84.40;;;;;;5154947;27;20043;-84
2021/06/10 05:10:42;;;;;;;12.10;10.50;;;15.90;84.80;;;;;;5160763;27;20390;-85
2021/06/10 05:13:12;;;;;;;11.52;9.85;;;15.90;85.10;;;;;;5176606;27;20044;-84
2021/06/10 05:15:40;;;;;;;16.33;11.13;;;15.90;84.70;;;;;;5175150;27;20050;-84
2021/06/10 05:18:05;;;;;;;13.55;11.30;;;15.90;85.00;;;;;;5175418;27;20038;-84
2021/06/10 05:20:32;;;;;;;13.35;10.45;;;15.90;85.40;;;;;;5174404;27;20105;-85
2021/06/10 05:22:58;;;;;;;12.52;11.07;;;16.00;85.50;;;;;;5166428;27;20472;-86
2021/06/10 05:25:24;;;;;;;12.75;11.10;;;15.90;85.40;;;;;;5166642;27;20046;-85
2021/06/10 05:27:49;;;;;;;16.85;14.98;;;16.00;84.70;;;;;;5161624;27;20546;-86
2021/06/10 05:30:15;;;;;;;15.32;11.68;;;16.00;85.20;;;;;;5155001;27;20046;-86
2021/06/10 05:32:41;;;;;;;14.20;11.50;;;16.00;84.90;;;;;;5158463;27;20081;-86
2021/06/10 05:35:07;;;;;;;13.57;11.57;;;16.00;85.30;;;;;;5163651;27;20477;-85
2021/06/10 05:37:34;;;;;;;16.00;12.32;;;16.00;85.40;;;;;;5163664;27;20436;-88
2021/06/10 05:40:01;;;;;;;17.95;13.73;;;16.00;85.20;;;;;;5169559;27;20045;-88
2021/06/10 05:42:27;;;;;;;18.35;15.00;;;16.00;85.30;;;;;;5171909;27;20527;-89
2021/06/10 05:44:53;;;;;;;24.98;18.42;;;16.10;85.60;;;;;;5170948;27;20054;-85
2021/06/10 05:47:20;;;;;;;18.20;15.38;;;16.10;86.60;;;;;;5175317;27;20512;-86
2021/06/10 05:49:46;;;;;;;22.55;17.65;;;16.10;86.10;;;;;;5171669;27;20070;-86
2021/06/10 05:52:12;;;;;;;26.40;20.23;;;16.10;86.60;;;;;;5161022;27;20038;-87
2021/06/10 05:54:37;;;;;;;16.25;13.40;;;16.20;87.90;;;;;;5164904;27;20129;-86
2021/06/10 05:57:04;;;;;;;20.85;16.60;;;16.20;86.60;;;;;;5167650;27;20066;-86
2021/06/10 05:59:29;;;;;;;14.70;12.43;;;16.30;86.70;;;;;;5158506;27;20129;-85
2021/06/10 06:01:55;;;;;;;20.95;16.85;;;16.30;85.60;;;;;;5166996;27;20129;-85
2021/06/10 06:04:21;;;;;;;19.52;14.82;;;16.30;86.10;;;;;;5166570;27;20419;-89
2021/06/10 06:06:48;;;;;;;17.58;15.15;;;16.40;85.40;;;;;;5161171;27;20054;-85
2021/06/10 06:09:17;;;;;;;24.67;17.27;;;16.40;85.30;;;;;;5155797;27;20050;-86
2021/06/10 06:11:44;;;;;;;21.38;15.68;;;16.50;86.00;;;;;;5152370;27;20103;-86
2021/06/10 06:14:12;;;;;;;17.70;14.43;;;16.50;86.90;;;;;;5160990;27;20046;-85
2021/06/10 06:16:41;;;;;;;18.23;13.27;;;16.60;86.20;;;;;;5164607;27;20053;-85
2021/06/10 06:19:08;;;;;;;17.27;12.93;;;16.60;85.60;;;;;;5168738;27;20046;-85
2021/06/10 06:21:44;;;;;;;17.38;13.85;;;16.70;85.60;;;;;;5157385;27;20471;-86
2021/06/10 06:24:11;;;;;;;17.35;14.43;;;16.70;85.40;;;;;;5168663;27;20121;-85
2021/06/10 06:26:38;;;;;;;18.40;12.98;;;16.80;85.10;;;;;;5163901;27;20042;-86
2021/06/10 06:29:04;;;;;;;16.13;13.75;;;16.90;84.80;;;;;;5161054;27;20501;-84
2021/06/10 06:31:31;;;;;;;15.05;12.68;;;17.00;84.70;;;;;;5171142;27;20045;-84
2021/06/10 06:33:58;;;;;;;17.30;12.75;;;17.10;84.50;;;;;;5158136;27;20046;-84
2021/06/10 06:36:24;;;;;;;16.98;13.27;;;17.20;84.30;;;;;;5166126;27;20079;-85
2021/06/10 06:38:55;;;;;;;19.30;14.38;;;17.30;84.60;;;;;;5157783;27;20059;-86
2021/06/10 06:41:21;;;;;;;15.95;12.75;;;17.40;84.60;;;;;;5170952;27;20113;-85
2021/06/10 06:43:48;;;;;;;16.33;12.43;;;17.60;84.40;;;;;;5157742;27;20076;-84
2021/06/10 06:46:14;;;;;;;16.95;12.43;;;17.60;83.70;;;;;;5167073;27;20070;-87
2021/06/10 06:48:40;;;;;;;17.27;12.75;;;17.70;83.80;;;;;;5157290;27;20119;-85
2021/06/10 06:51:07;;;;;;;18.20;13.38;;;17.90;83.80;;;;;;5168487;27;20054;-85
2021/06/10 06:53:33;;;;;;;18.17;13.32;;;18.00;83.60;;;;;;5155950;27;20099;-87
2021/06/10 06:56:01;;;;;;;17.70;12.85;;;18.10;83.20;;;;;;5169803;27;20043;-85
2021/06/10 06:58:30;;;;;;;15.77;12.45;;;18.20;82.90;;;;;;5161444;27;20115;-86
2021/06/10 07:00:58;;;;;;;15.77;12.93;;;18.30;83.00;;;;;;5163171;27;20137;-85
2021/06/10 07:03:24;;;;;;;17.02;13.20;;;18.40;82.90;;;;;;5155352;27;20387;-85
2021/06/10 07:05:52;;;;;;;19.13;13.50;;;18.50;82.80;;;;;;5161124;27;20396;-87
2021/06/10 07:08:18;;;;;;;17.35;13.50;;;18.60;82.80;;;;;;5170601;27;20129;-87
2021/06/10 07:10:44;;;;;;;15.55;12.95;;;18.70;82.60;;;;;;5169421;27;20070;-85
2021/06/10 07:13:10;;;;;;;18.13;13.52;;;18.80;82.30;;;;;;5178923;27;20100;-86
2021/06/10 07:15:37;;;;;;;15.68;13.20;;;18.90;82.00;;;;;;5159962;27;20072;-86
2021/06/10 07:18:04;;;;;;;18.05;12.80;;;19.00;81.70;;;;;;5168054;27;20050;-84
2021/06/10 07:20:30;;;;;;;15.20;13.27;;;19.10;81.60;;;;;;5166316;27;20051;-90
2021/06/10 07:23:01;;;;;;;13.65;11.75;;;19.20;81.40;;;;;;5170091;27;20046;-86
2021/06/10 07:25:27;;;;;;;16.98;13.48;;;19.40;81.50;;;;;;5167867;27;20049;-85
2021/06/10 07:27:53;;;;;;;13.77;12.30;;;19.40;81.20;;;;;;5155091;27;20050;-85
2021/06/10 07:30:21;;;;;;;15.50;11.60;;;19.50;81.20;;;;;;5156519;27;20039;-86
2021/06/10 07:32:47;;;;;;;15.73;12.40;;;19.70;81.10;;;;;;5155380;27;20057;-88
2021/06/10 07:35:25;;;;;;;15.30;12.13;;;19.80;80.90;;;;;;5173868;27;20046;-87
2021/06/10 07:37:52;;;;;;;14.90;11.40;;;19.90;80.70;;;;;;5162596;27;20447;-85
2021/06/10 07:40:20;;;;;;;14.32;11.25;;;20.00;80.10;;;;;;5165176;27;20128;-86
2021/06/10 07:42:46;;;;;;;15.13;11.88;;;20.10;79.80;;;;;;5165753;27;20055;-86
2021/06/10 07:45:13;;;;;;;15.02;12.02;;;20.20;79.60;;;;;;5172865;27;20374;-86
2021/06/10 07:47:39;;;;;;;15.55;11.98;;;20.40;79.40;;;;;;5161526;27;20050;-86
2021/06/10 07:50:07;;;;;;;13.05;10.98;;;20.40;79.00;;;;;;5162347;27;20045;-86
2021/06/10 07:52:32;;;;;;;12.57;10.85;;;20.50;78.60;;;;;;5168190;27;20047;-85
2021/06/10 07:54:58;;;;;;;16.10;11.82;;;20.60;78.60;;;;;;5170232;27;20374;-86
2021/06/10 07:57:24;;;;;;;16.60;11.43;;;20.70;78.00;;;;;;5176496;27;20042;-86
2021/06/10 07:59:50;;;;;;;12.80;10.65;;;20.80;78.20;;;;;;5168434;27;20050;-85
2021/06/10 08:02:16;;;;;;;13.93;11.73;;;20.90;77.70;;;;;;5164332;27;20034;-85
2021/06/10 08:04:42;;;;;;;12.32;10.20;;;21.10;76.80;;;;;;5165344;27;20047;-85
2021/06/10 08:07:09;;;;;;;13.52;10.70;;;21.20;76.40;;;;;;5150489;27;20089;-86
2021/06/10 08:09:35;;;;;;;13.77;11.07;;;21.30;76.90;;;;;;5161940;27;20634;-85
2021/06/10 08:12:02;;;;;;;14.65;10.85;;;21.30;76.40;;;;;;5160854;27;20063;-85
2021/06/10 08:14:28;;;;;;;15.38;11.40;;;21.40;76.50;;;;;;5163838;27;20122;-86
2021/06/10 08:16:54;;;;;;;12.15;9.27;;;21.50;76.10;;;;;;5168038;27;20133;-86
2021/06/10 08:19:20;;;;;;;13.75;8.82;;;21.60;75.10;;;;;;5168763;27;20045;-87
2021/06/10 08:21:45;;;;;;;12.40;9.20;;;21.70;74.80;;;;;;5165580;27;20034;-84
2021/06/10 08:24:15;;;;;;;12.68;9.85;;;21.70;75.10;;;;;;5166119;27;20114;-87
2021/06/10 08:26:43;;;;;;;11.05;8.25;;;21.80;74.50;;;;;;5166452;27;20428;-86
2021/06/10 08:29:11;;;;;;;10.82;8.90;;;21.90;73.30;;;;;;5161919;27;20129;-87
2021/06/10 08:31:37;;;;;;;13.23;9.32;;;22.00;72.70;;;;;;5168998;27;20460;-85
2021/06/10 08:34:03;;;;;;;11.73;9.30;;;22.10;72.10;;;;;;5163839;27;20538;-84
2021/06/10 08:36:29;;;;;;;10.90;8.85;;;22.20;73.30;;;;;;5159001;27;20131;-85
2021/06/10 08:38:55;;;;;;;12.38;8.30;;;22.20;74.30;;;;;;5164420;27;20053;-85
2021/06/10 08:41:23;;;;;;;10.95;8.60;;;22.30;72.50;;;;;;5167714;27;20129;-85
2021/06/10 08:43:50;;;;;;;11.15;8.10;;;22.40;72.00;;;;;;5157691;27;20042;-85
2021/06/10 08:46:17;;;;;;;12.00;8.32;;;22.50;72.50;;;;;;5170169;27;20069;-86
2021/06/10 08:48:44;;;;;;;11.05;8.32;;;22.60;71.10;;;;;;5170047;27;20074;-85
2021/06/10 08:51:11;;;;;;;9.43;8.32;;;22.70;69.50;;;;;;5165722;27;20038;-83
2021/06/10 08:53:37;;;;;;;11.27;7.97;;;22.70;69.20;;;;;;5157684;27;20070;-82
2021/06/10 08:56:04;;;;;;;11.25;8.98;;;22.80;70.20;;;;;;5157084;27;20039;-83
2021/06/10 08:58:30;;;;;;;12.90;8.80;;;22.90;70.10;;;;;;5160109;27;20073;-82
2021/06/10 09:00:58;;;;;;;10.65;8.50;;;23.00;70.90;;;;;;5153607;27;20068;-82
2021/06/10 09:03:31;;;;;;;10.30;8.73;;;23.10;70.90;;;;;;5155560;27;20055;-83
2021/06/10 09:06:14;;;;;;;;;;;23.20;70.40;;;;;;5160836;27;20038;-83
2021/06/10 09:08:42;;;;;;;12.40;8.45;;;23.20;69.50;;;;;;5164089;27;19987;-83
2021/06/10 09:11:16;;;;;;;12.07;8.20;;;23.30;70.60;;;;;;5165067;27;20034;-83
2021/06/10 09:13:48;;;;;;;13.15;9.20;;;23.40;70.40;;;;;;5158666;27;20051;-83
2021/06/10 09:16:34;;;;;;;11.32;9.02;;;23.50;68.40;;;;;;5167364;27;20069;-84
2021/06/10 09:19:19;;;;;;;11.27;8.70;;;23.60;65.30;;;;;;5170948;27;20050;-84
2021/06/10 09:21:47;;;;;;;12.80;9.20;;;23.70;66.30;;;;;;5160017;27;20046;-84
2021/06/10 09:24:24;;;;;;;10.40;8.57;;;23.80;65.50;;;;;;5169274;27;20039;-84
2021/06/10 09:27:05;;;;;;;11.48;9.13;;;23.80;66.10;;;;;;5164599;27;20424;-85
2021/06/10 09:29:36;;;;;;;11.88;9.55;;;24.00;66.30;;;;;;5171404;27;20457;-85
2021/06/10 09:32:02;;;;;;;11.75;9.30;;;24.10;66.50;;;;;;5160786;27;20046;-86
2021/06/10 09:34:59;;;;;;;12.80;9.90;;;24.10;65.50;;;;;;5166390;27;20047;-86
2021/06/10 09:37:32;;;;;;;13.98;9.77;;;24.30;65.60;;;;;;5156718;27;20069;-83
2021/06/10 09:39:59;;;;;;;12.57;9.07;;;24.30;65.10;;;;;;5162910;27;20046;-83
2021/06/10 09:42:35;;;;;;;11.90;10.00;;;24.40;66.70;;;;;;5166134;27;20095;-86
2021/06/10 09:45:04;;;;;;;16.05;9.52;;;24.50;65.90;;;;;;5169082;27;20049;-84
2021/06/10 09:47:41;;;;;;;13.65;9.93;;;24.60;65.70;;;;;;5157972;27;20055;-83
2021/06/10 09:50:21;;;;;;;10.75;8.75;;;24.70;64.90;;;;;;5168934;27;20192;-87
2021/06/10 09:52:59;;;;;;;12.27;8.77;;;24.70;65.30;;;;;;5166478;27;20446;-84
2021/06/10 09:55:48;;;;;;;13.63;9.07;;;24.90;67.00;;;;;;5165482;27;20042;-84
2021/06/10 09:58:14;;;;;;;13.88;10.38;;;25.00;66.90;;;;;;5161816;27;20061;-85
2021/06/10 10:00:47;;;;;;;14.13;9.80;;;25.00;65.00;;;;;;5174411;27;20046;-85
2021/06/10 10:03:22;;;;;;;12.45;9.05;;;25.10;65.40;;;;;;5154748;27;20038;-85
2021/06/10 10:05:54;;;;;;;10.50;8.30;;;25.20;65.60;;;;;;5167001;27;20401;-85
2021/06/10 10:08:20;;;;;;;10.52;7.75;;;25.30;67.40;;;;;;5164849;27;20486;-86
2021/06/10 10:10:47;;;;;;;13.27;7.97;;;25.30;65.30;;;;;;5164771;27;20129;-84
2021/06/10 10:13:17;;;;;;;9.15;7.47;;;25.40;63.90;;;;;;5163179;27;20046;-88
2021/06/10 10:15:44;;;;;;;10.30;7.00;;;25.50;64.90;;;;;;5171406;27;20053;-84
2021/06/10 10:18:11;;;;;;;11.80;7.10;;;25.50;65.70;;;;;;5160362;27;20053;-86
2021/06/10 10:20:38;;;;;;;10.23;7.68;;;25.60;62.90;;;;;;5161943;27;20051;-84
2021/06/10 10:23:05;;;;;;;9.27;6.75;;;25.60;62.00;;;;;;5154408;27;20066;-84
2021/06/10 10:25:31;;;;;;;10.52;5.60;;;25.70;61.70;;;;;;5170961;27;20065;-84
2021/06/10 10:27:58;;;;;;;8.25;5.03;;;25.80;61.00;;;;;;5158569;27;20060;-83
2021/06/10 10:30:25;;;;;;;6.40;4.25;;;25.80;61.00;;;;;;5163974;27;20367;-84
2021/06/10 10:32:50;;;;;;;6.88;4.65;;;25.80;61.60;;;;;;5174421;27;20046;-84
2021/06/10 10:35:27;;;;;;;8.77;5.00;;;25.90;60.60;;;;;;5158820;27;20038;-84
2021/06/10 10:37:56;;;;;;;7.63;4.43;;;25.90;62.50;;;;;;5157153;27;20042;-84
2021/06/10 10:40:27;;;;;;;12.57;4.43;;;26.00;60.00;;;;;;5166349;27;20400;-85
2021/06/10 10:42:55;;;;;;;8.65;4.38;;;26.00;58.20;;;;;;5167051;27;20120;-83
2021/06/10 10:45:22;;;;;;;7.88;4.13;;;26.00;58.20;;;;;;5157663;27;20154;-84
2021/06/10 10:48:04;;;;;;;6.95;4.20;;;26.10;57.30;;;;;;5170917;27;20410;-85
2021/06/10 10:50:37;;;;;;;6.20;4.00;;;26.10;59.90;;;;;;5163259;27;20050;-84
2021/06/10 10:53:07;;;;;;;7.85;4.60;;;26.10;58.10;;;;;;5159941;27;20042;-84
2021/06/10 10:55:33;;;;;;;7.57;3.78;;;26.20;59.60;;;;;;5170688;27;20050;-84
2021/06/10 10:58:16;;;;;;;7.68;3.58;;;26.20;58.80;;;;;;5158004;27;20043;-82
2021/06/10 11:00:59;;;;;;;6.68;3.70;;;26.30;56.80;;;;;;5164065;27;20050;-89
2021/06/10 11:03:54;;;;;;;10.05;3.78;;;26.40;55.40;;;;;;5159331;27;20050;-88
2021/06/10 11:06:26;;;;;;;10.23;3.60;;;26.40;56.60;;;;;;5132294;27;20049;-87
2021/06/10 11:09:15;;;;;;;10.20;3.90;;;26.50;57.30;;;;;;5167076;27;20042;-88
2021/06/10 11:11:58;;;;;;;9.27;4.47;;;26.50;56.70;;;;;;5171736;27;20500;-88
2021/06/10 11:14:42;;;;;;;7.45;4.07;;;26.60;55.60;;;;;;5155928;27;20057;-88
2021/06/10 11:17:41;;;;;;;8.27;4.15;;;26.60;55.80;;;;;;5152220;27;20074;-87
2021/06/10 11:20:13;;;;;;;6.43;3.88;;;26.60;55.70;;;;;;5160842;27;20046;-87
2021/06/10 11:22:49;;;;;;;9.35;4.38;;;26.60;59.60;;;;;;5151965;27;20073;-88
2021/06/10 11:25:36;;;;;;;5.93;3.08;;;26.70;58.00;;;;;;5147882;27;20051;-87
2021/06/10 11:28:16;;;;;;;5.80;3.28;;;26.70;56.20;;;;;;5155905;27;20110;-87
2021/06/10 11:30:43;;;;;;;8.02;3.60;;;26.80;57.30;;;;;;5168646;27;20047;-88
2021/06/10 11:33:22;;;;;;;7.50;3.83;;;26.90;57.10;;;;;;5158968;27;20108;-87
2021/06/10 11:35:53;;;;;;;7.70;3.90;;;26.90;54.20;;;;;;5170190;27;20038;-88
2021/06/10 11:38:25;;;;;;;7.03;3.65;;;27.00;54.40;;;;;;5161505;27;20427;-88
2021/06/10 11:41:03;;;;;;;8.90;3.58;;;27.00;55.00;;;;;;5153901;27;20077;-90
2021/06/10 11:43:31;;;;;;;8.38;4.90;;;27.00;54.60;;;;;;5156173;27;20417;-87
2021/06/10 11:46:08;;;;;;;8.63;4.40;;;27.00;52.70;;;;;;5170052;27;20039;-88
2021/06/10 11:48:42;;;;;;;7.75;4.57;;;27.00;52.90;;;;;;5162465;27;20056;-87
2021/06/10 11:51:25;;;;;;;7.10;4.82;;;26.90;53.60;;;;;;5162202;27;20070;-89
2021/06/10 11:53:54;;;;;;;7.35;4.55;;;26.90;55.80;;;;;;5161238;27;20132;-88
2021/06/10 11:56:24;;;;;;;9.02;4.32;;;26.90;57.30;;;;;;5169753;27;20061;-92
2021/06/10 11:58:53;;;;;;;5.88;4.22;;;27.00;55.30;;;;;;5169429;27;20489;-88
2021/06/10 12:01:19;;;;;;;8.15;4.55;;;27.10;54.90;;;;;;5162588;27;20099;-88
2021/06/10 12:03:47;;;;;;;8.07;4.50;;;27.10;55.00;;;;;;5156988;27;20050;-88
2021/06/10 12:06:14;;;;;;;9.43;4.50;;;27.20;54.60;;;;;;5164488;27;20121;-91
2021/06/10 12:08:45;;;;;;;9.57;4.75;;;27.20;53.80;;;;;;5174532;27;20487;-87
2021/06/10 12:11:14;;;;;;;6.72;4.88;;;27.30;53.60;;;;;;5171762;27;20098;-89
2021/06/10 12:13:54;;;;;;;6.95;4.95;;;27.30;53.40;;;;;;5175295;27;20106;-91
2021/06/10 12:16:20;;;;;;;8.73;4.82;;;27.30;52.10;;;;;;5164086;27;20125;-89
2021/06/10 12:18:52;;;;;;;9.23;4.90;;;27.40;53.50;;;;;;5147084;27;20138;-88
2021/06/10 12:21:27;;;;;;;8.10;5.53;;;27.40;56.00;;;;;;5174188;27;20433;-87
2021/06/10 12:23:59;;;;;;;8.52;5.43;;;27.50;53.40;;;;;;5159871;27;20474;-91
2021/06/10 12:26:27;;;;;;;6.53;4.95;;;27.40;52.90;;;;;;5149467;27;20122;-90
2021/06/10 12:28:57;;;;;;;8.27;4.38;;;27.50;52.60;;;;;;5163456;27;20091;-91
2021/06/10 12:31:24;;;;;;;7.97;4.10;;;27.50;52.80;;;;;;5156427;27;20095;-89
2021/06/10 12:33:58;;;;;;;7.50;3.67;;;27.50;52.10;;;;;;5159543;27;20054;-90
2021/06/10 12:36:44;;;;;;;8.93;4.55;;;27.50;51.30;;;;;;5164924;27;20118;-90
2021/06/10 12:39:19;;;;;;;9.63;5.03;;;27.60;54.60;;;;;;5162264;27;20472;-91
2021/06/10 12:41:47;;;;;;;9.35;4.97;;;27.70;53.00;;;;;;5159841;27;20050;-91
2021/06/10 12:44:14;;;;;;;9.35;4.80;;;27.70;52.50;;;;;;5170548;27;20043;-91